Time;durP1;ratioP1;P1;durP2;ratioP2;P2;SDS_P1;SDS_P2;PMS_P1;PMS_P2;Temp;Humidity;BMP_temperature;BMP_pressure;BME280_temperature;BME280_humidity;BME280_pressure;Samples;Min_cycle;Max_cycle;Signal;HPM_P1;HPM_P2
2023/06/19 00:01:28;;;;;;;10.40;9.60;;;;;;;24.74;48.30;157732.75;5009542;28;20560;-80
2023/06/19 00:03:55;;;;;;;10.03;9.23;;;;;;;24.72;48.19;157727.53;5026310;28;20440;-80
2023/06/19 00:06:21;;;;;;;10.77;9.67;;;;;;;24.69;48.32;157719.69;5009193;28;20906;-80
2023/06/19 00:08:48;;;;;;;10.13;9.33;;;;;;;24.66;48.25;157711.84;5008614;28;20466;-80
2023/06/19 00:11:14;;;;;;;10.60;9.70;;;;;;;24.66;48.31;157711.84;5020285;28;20457;-80
2023/06/19 00:13:41;;;;;;;9.93;9.13;;;;;;;24.62;48.35;157702.66;4993724;28;20560;-80
2023/06/19 00:16:07;;;;;;;9.90;9.00;;;;;;;24.63;48.43;157703.97;5000985;28;20480;-80
2023/06/19 00:18:39;;;;;;;9.73;8.93;;;;;;;24.62;48.38;157702.66;5003807;28;20457;-80
2023/06/19 00:21:07;;;;;;;10.00;9.10;;;;;;;24.58;48.26;157692.22;5022266;28;20582;-80
2023/06/19 00:23:33;;;;;;;11.00;9.00;;;;;;;24.56;48.38;157685.69;5010336;28;20471;-80
2023/06/19 00:26:01;;;;;;;10.97;9.87;;;;;;;24.55;48.79;157683.03;5008264;28;20452;-80
2023/06/19 00:28:27;;;;;;;11.07;10.17;;;;;;;24.51;48.71;157673.94;5008362;28;20445;-81
2023/06/19 00:30:54;;;;;;;9.33;8.53;;;;;;;24.47;49.08;157663.44;5008791;28;20480;-80
2023/06/19 00:33:21;;;;;;;10.87;9.77;;;;;;;24.46;49.32;157659.53;5009164;28;20546;-80
2023/06/19 00:35:51;;;;;;;11.10;10.03;;;;;;;24.43;49.43;157651.69;5010607;28;20483;-80
2023/06/19 00:38:17;;;;;;;10.40;9.40;;;;;;;24.37;49.62;157635.97;5011277;28;20444;-80
2023/06/19 00:40:44;;;;;;;10.67;9.80;;;;;;;24.31;49.61;157620.25;5025320;28;20448;-80
2023/06/19 00:43:10;;;;;;;10.60;9.50;;;;;;;24.29;50.25;157615.03;5009516;28;20461;-80
2023/06/19 00:45:38;;;;;;;10.40;9.33;;;;;;;24.29;50.30;157616.34;5007613;28;20559;-80
2023/06/19 00:48:05;;;;;;;9.27;8.57;;;;;;;24.28;49.95;157612.44;4990304;28;20454;-80
2023/06/19 00:50:32;;;;;;;10.10;9.30;;;;;;;24.25;50.41;157605.91;5008748;28;20839;-80
2023/06/19 00:53:01;;;;;;;10.77;9.70;;;;;;;24.23;50.14;157601.97;5009144;28;20494;-80
2023/06/19 00:55:29;;;;;;;10.00;9.20;;;;;;;24.19;51.06;157591.53;5008016;28;20492;-80
2023/06/19 00:57:56;;;;;;;9.73;8.90;;;;;;;24.19;50.77;157590.22;5020744;28;20462;-80
2023/06/19 01:00:23;;;;;;;10.67;9.70;;;;;;;24.16;50.86;157582.34;5014543;28;20455;-80
2023/06/19 01:02:50;;;;;;;11.77;10.60;;;;;;;24.15;50.83;157579.72;4977513;28;20449;-80
2023/06/19 01:05:17;;;;;;;10.77;9.67;;;;;;;24.14;50.80;157578.47;5008381;28;20457;-80
2023/06/19 01:07:47;;;;;;;11.07;10.07;;;;;;;24.10;51.21;157567.97;5023171;28;20492;-80
2023/06/19 01:10:19;;;;;;;10.80;9.90;;;;;;;24.05;51.34;157554.84;5008615;28;20519;-80
2023/06/19 01:12:52;;;;;;;10.60;9.70;;;;;;;23.99;51.44;157539.13;5026049;28;20448;-80
2023/06/19 01:15:18;;;;;;;11.13;10.10;;;;;;;23.99;51.57;157539.13;5004946;28;20591;-80
2023/06/19 01:17:47;;;;;;;10.40;9.50;;;;;;;24.02;51.39;157547.00;5005452;28;20808;-80
2023/06/19 01:20:14;;;;;;;9.73;8.90;;;;;;;24.02;51.37;157547.00;5013489;28;20523;-80
2023/06/19 01:22:43;;;;;;;9.90;9.00;;;;;;;24.06;51.86;157557.47;5024161;28;20441;-80
2023/06/19 01:25:10;;;;;;;9.63;8.73;;;;;;;24.11;50.64;157569.28;5007921;28;20472;-81
2023/06/19 01:27:37;;;;;;;9.17;8.20;;;;;;;24.10;50.63;157567.97;5006226;28;20450;-80
2023/06/19 01:30:05;;;;;;;9.37;8.57;;;;;;;24.13;50.16;157575.81;5024982;28;20563;-80
2023/06/19 01:32:35;;;;;;;8.70;8.00;;;;;;;24.11;50.26;157570.59;5004850;28;20540;-80
2023/06/19 01:35:03;;;;;;;8.93;8.13;;;;;;;24.09;50.12;157565.34;5000286;28;20874;-81
2023/06/19 01:37:33;;;;;;;9.40;8.60;;;;;;;24.09;50.29;157565.34;5004350;28;20456;-80
2023/06/19 01:40:04;;;;;;;8.30;7.60;;;;;;;24.05;50.10;157554.84;5020192;28;20548;-81
2023/06/19 01:42:32;;;;;;;8.20;7.07;;;;;;;24.01;50.65;157543.09;4988396;28;20453;-81
2023/06/19 01:45:00;;;;;;;8.20;7.50;;;;;;;23.96;50.88;157531.28;5007577;28;20448;-81
2023/06/19 01:47:26;;;;;;;8.30;7.50;;;;;;;23.94;50.86;157524.75;5006805;28;20460;-81
2023/06/19 01:49:55;;;;;;;7.83;6.77;;;;;;;23.88;51.73;157510.38;5020086;28;20522;-81
2023/06/19 01:52:21;;;;;;;7.90;7.17;;;;;;;23.86;51.92;157505.16;5019533;28;20463;-80
2023/06/19 01:54:48;;;;;;;8.50;7.80;;;;;;;23.83;52.07;157496.03;5006087;28;20484;-81
2023/06/19 01:57:16;;;;;;;6.97;6.37;;;;;;;23.81;52.28;157492.06;5008023;28;20456;-81
2023/06/19 01:59:42;;;;;;;8.40;7.60;;;;;;;23.75;52.79;157476.38;5008134;28;20453;-81
2023/06/19 02:02:10;;;;;;;7.47;6.77;;;;;;;23.71;52.67;157464.63;5006382;28;20850;-81
2023/06/19 02:04:36;;;;;;;7.43;6.73;;;;;;;23.66;52.57;157452.88;4989608;28;20459;-81
2023/06/19 02:07:03;;;;;;;7.30;6.60;;;;;;;23.61;52.67;157441.13;5004276;28;20532;-81
2023/06/19 02:09:30;;;;;;;7.30;6.70;;;;;;;23.57;53.32;157429.31;4992197;28;20460;-80
2023/06/19 02:11:57;;;;;;;7.90;7.20;;;;;;;23.55;53.29;157424.09;5023180;28;21030;-80
2023/06/19 02:14:25;;;;;;;7.60;6.90;;;;;;;23.54;53.97;157421.47;4990544;28;20870;-80
2023/06/19 02:16:51;;;;;;;7.50;6.50;;;;;;;23.50;54.03;157412.34;4997923;28;20813;-81
2023/06/19 02:19:18;;;;;;;7.53;6.90;;;;;;;23.48;54.42;157407.09;5003201;28;20456;-81
2023/06/19 02:21:45;;;;;;;7.23;6.63;;;;;;;23.46;54.93;157400.56;5006820;28;20472;-80
2023/06/19 02:24:11;;;;;;;6.43;5.83;;;;;;;23.46;54.73;157400.56;4991633;28;20445;-80
2023/06/19 02:26:39;;;;;;;7.63;6.90;;;;;;;23.44;55.68;157396.66;5023822;28;20537;-80
2023/06/19 02:29:05;;;;;;;7.10;6.50;;;;;;;23.40;56.13;157384.91;4998849;28;20887;-81
2023/06/19 02:31:33;;;;;;;7.90;7.10;;;;;;;23.36;55.83;157374.38;5019397;28;20463;-81
2023/06/19 02:34:00;;;;;;;7.90;6.70;;;;;;;23.33;56.04;157367.84;5025131;28;20839;-81
2023/06/19 02:36:26;;;;;;;7.03;6.43;;;;;;;23.30;56.59;157358.72;5006573;28;20492;-80
2023/06/19 02:38:53;;;;;;;6.60;6.07;;;;;;;23.25;57.11;157346.94;5019936;28;20550;-80
2023/06/19 02:41:21;;;;;;;7.20;6.60;;;;;;;23.22;57.32;157337.81;5007302;28;20461;-81
2023/06/19 02:43:48;;;;;;;7.40;6.70;;;;;;;23.18;56.64;157328.66;5022313;28;20472;-81
2023/06/19 02:46:15;;;;;;;7.27;6.67;;;;;;;23.18;57.28;157327.34;5019561;28;20496;-80
2023/06/19 02:48:43;;;;;;;7.17;6.57;;;;;;;23.17;57.90;157324.69;5015623;28;20527;-80
2023/06/19 02:51:09;;;;;;;7.10;6.40;;;;;;;23.14;57.14;157316.91;5003053;28;20449;-80
2023/06/19 02:53:36;;;;;;;7.13;6.30;;;;;;;23.13;57.53;157315.59;4987276;28;20453;-80
2023/06/19 02:56:02;;;;;;;6.67;6.17;;;;;;;23.14;57.36;157316.91;4985423;28;20468;-80
2023/06/19 02:58:29;;;;;;;6.97;6.37;;;;;;;23.14;57.35;157318.16;5007915;28;20453;-80
2023/06/19 03:00:56;;;;;;;6.30;5.80;;;;;;;23.13;57.68;157314.28;4987530;28;20456;-80
2023/06/19 03:03:46;;;;;;;6.73;6.10;;;;;;;23.08;58.06;157301.22;4985196;28;20448;-80
2023/06/19 03:06:13;;;;;;;6.77;6.27;;;;;;;23.01;58.44;157285.50;5019027;28;20979;-80
2023/06/19 03:08:40;;;;;;;6.50;5.90;;;;;;;22.96;58.48;157272.44;5003065;28;20500;-80
2023/06/19 03:11:06;;;;;;;6.83;6.13;;;;;;;22.97;59.10;157273.75;5023790;28;20614;-80
2023/06/19 03:13:44;;;;;;;6.80;6.07;;;;;;;22.94;58.58;157267.25;5016640;28;20519;-81
2023/06/19 03:16:11;;;;;;;6.20;5.70;;;;;;;22.93;58.85;157263.28;4989670;28;20563;-80
2023/06/19 03:18:37;;;;;;;5.93;5.43;;;;;;;22.89;59.06;157254.16;5001062;28;20454;-80
2023/06/19 03:21:05;;;;;;;5.77;5.27;;;;;;;22.87;58.92;157248.97;5006959;28;20472;-81
2023/06/19 03:23:32;;;;;;;5.97;5.37;;;;;;;22.86;59.94;157245.00;5001461;28;20453;-80
2023/06/19 03:25:59;;;;;;;5.53;5.03;;;;;;;22.80;60.25;157230.63;5013249;28;20457;-80
2023/06/19 03:28:25;;;;;;;6.97;5.10;;;;;;;22.78;60.57;157224.09;5008100;28;20496;-80
2023/06/19 03:30:53;;;;;;;5.60;4.80;;;;;;;22.73;60.72;157212.34;5009512;28;20460;-80
2023/06/19 03:33:23;;;;;;;7.50;5.77;;;;;;;22.72;60.37;157209.72;5003523;28;20540;-80
2023/06/19 03:35:49;;;;;;;4.73;4.33;;;;;;;22.71;60.91;157207.16;5006499;28;20495;-81
2023/06/19 03:38:28;;;;;;;5.47;4.97;;;;;;;22.69;61.17;157201.88;4984974;28;20544;-81
2023/06/19 03:40:55;;;;;;;8.80;4.93;;;;;;;22.66;60.95;157194.09;4982077;28;20460;-80
2023/06/19 03:43:22;;;;;;;5.20;4.70;;;;;;;22.63;61.21;157186.25;4985525;28;20461;-80
2023/06/19 03:45:49;;;;;;;4.90;4.50;;;;;;;22.61;62.02;157179.66;5004179;28;20453;-80
2023/06/19 03:48:16;;;;;;;5.53;5.03;;;;;;;22.57;62.71;157170.50;5008167;28;20531;-81
2023/06/19 03:50:42;;;;;;;4.70;4.30;;;;;;;22.58;63.43;157171.81;5006418;28;20835;-81
2023/06/19 03:53:10;;;;;;;4.60;4.20;;;;;;;22.54;64.44;157162.66;4989014;28;20539;-80
2023/06/19 03:55:38;;;;;;;4.40;4.00;;;;;;;22.50;64.40;157150.91;5013726;28;20473;-80
2023/06/19 03:58:05;;;;;;;4.90;4.40;;;;;;;22.44;64.95;157136.53;4986016;28;20894;-81
2023/06/19 04:00:32;;;;;;;5.33;4.37;;;;;;;22.41;64.30;157128.69;4983202;28;20500;-80
2023/06/19 04:02:59;;;;;;;4.50;4.10;;;;;;;22.38;63.99;157120.84;5005716;28;20460;-80
2023/06/19 04:05:25;;;;;;;4.80;4.13;;;;;;;22.36;63.26;157116.97;4992572;28;20467;-80
2023/06/19 04:07:52;;;;;;;6.10;4.10;;;;;;;22.37;64.05;157118.28;5008123;28;20547;-80
2023/06/19 04:10:19;;;;;;;3.80;3.50;;;;;;;22.37;63.42;157118.28;5001833;28;20556;-81
2023/06/19 04:12:48;;;;;;;3.70;3.40;;;;;;;22.33;64.20;157107.78;5022305;28;20468;-81
2023/06/19 04:15:14;;;;;;;4.90;4.20;;;;;;;22.30;64.23;157101.25;5003864;28;20448;-80
2023/06/19 04:17:41;;;;;;;4.27;3.87;;;;;;;22.29;64.60;157098.63;5020231;28;20452;-81
2023/06/19 04:20:10;;;;;;;5.03;4.53;;;;;;;22.28;65.20;157094.75;5005220;28;21073;-81
2023/06/19 04:22:38;;;;;;;4.67;4.27;;;;;;;22.30;65.13;157099.94;5023811;28;21237;-80
2023/06/19 04:25:05;;;;;;;5.13;4.33;;;;;;;22.28;65.65;157094.75;5012954;28;20538;-81
2023/06/19 04:27:32;;;;;;;4.40;4.00;;;;;;;22.30;65.33;157101.25;5025446;28;20507;-81
2023/06/19 04:30:00;;;;;;;4.60;4.20;;;;;;;22.29;65.90;157097.38;5033240;28;20456;-81
2023/06/19 04:32:26;;;;;;;4.53;4.13;;;;;;;22.28;66.26;157096.06;5038824;28;20860;-81
2023/06/19 04:34:53;;;;;;;4.63;4.23;;;;;;;22.28;65.91;157094.75;5029358;28;20448;-80
2023/06/19 04:37:19;;;;;;;4.40;4.00;;;;;;;22.29;65.89;157098.63;5023788;28;20472;-80
2023/06/19 04:39:46;;;;;;;3.97;3.67;;;;;;;22.30;65.97;157101.25;5026880;28;20470;-80
2023/06/19 04:42:19;;;;;;;5.17;3.93;;;;;;;22.29;65.33;157097.38;5023263;28;20451;-80
2023/06/19 04:44:45;;;;;;;3.97;3.57;;;;;;;22.28;65.50;157094.75;5025721;28;21250;-80
2023/06/19 04:47:13;;;;;;;5.97;3.50;;;;;;;22.26;65.40;157090.84;5025588;28;20455;-80
2023/06/19 04:49:40;;;;;;;3.83;3.43;;;;;;;22.25;65.97;157088.22;5008345;28;20450;-80
2023/06/19 04:52:07;;;;;;;5.77;4.83;;;;;;;22.24;65.91;157085.59;5030844;28;20448;-80
2023/06/19 04:54:34;;;;;;;4.80;4.40;;;;;;;22.21;66.33;157076.47;5027602;28;20442;-80
2023/06/19 04:57:01;;;;;;;4.93;4.43;;;;;;;22.28;66.74;157094.75;5026965;28;20546;-80
2023/06/19 04:59:30;;;;;;;4.90;4.40;;;;;;;22.35;65.82;157113.00;5011906;28;20974;-80
2023/06/19 05:01:56;;;;;;;5.00;4.60;;;;;;;22.40;66.29;157126.06;5019337;28;20456;-80
2023/06/19 05:04:24;;;;;;;7.80;4.20;;;;;;;22.49;66.11;157149.59;5023644;28;20802;-80
2023/06/19 05:06:51;;;;;;;4.60;4.20;;;;;;;22.54;66.20;157161.34;5024785;28;20460;-80
2023/06/19 05:09:18;;;;;;;5.70;4.83;;;;;;;22.62;66.00;157182.25;5025749;28;20460;-81
2023/06/19 05:11:44;;;;;;;5.10;4.30;;;;;;;22.89;65.51;157254.16;5025023;28;20563;-81
2023/06/19 05:14:11;;;;;;;4.47;4.07;;;;;;;23.15;64.86;157320.81;5009960;28;20557;-81
2023/06/19 05:16:38;;;;;;;5.23;4.10;;;;;;;23.31;64.18;157361.31;5011968;28;20755;-80
2023/06/19 05:19:05;;;;;;;4.60;4.20;;;;;;;23.41;64.14;157387.50;5010143;28;20476;-81
2023/06/19 05:21:33;;;;;;;4.07;3.70;;;;;;;23.44;63.25;157395.34;5008608;28;21214;-81
2023/06/19 05:24:00;;;;;;;4.10;3.53;;;;;;;23.39;63.69;157382.28;5026849;28;20452;-81
2023/06/19 05:26:27;;;;;;;5.00;4.60;;;;;;;23.27;64.39;157350.88;5027399;28;20452;-81
2023/06/19 05:28:53;;;;;;;4.80;4.40;;;;;;;23.23;63.92;157340.41;5020952;28;20454;-81
2023/06/19 05:31:20;;;;;;;4.67;4.23;;;;;;;23.14;64.90;157318.16;5023676;28;20546;-81
2023/06/19 05:33:46;;;;;;;4.70;4.30;;;;;;;23.07;64.13;157298.56;5023040;28;21706;-81
2023/06/19 05:36:13;;;;;;;4.70;4.17;;;;;;;23.05;64.65;157294.69;5023704;28;20998;-81
2023/06/19 05:38:41;;;;;;;4.93;4.50;;;;;;;23.00;64.76;157282.94;5024675;28;20459;-81
2023/06/19 05:41:07;;;;;;;5.27;4.70;;;;;;;23.00;65.57;157282.94;5023795;28;21004;-81
2023/06/19 05:43:34;;;;;;;5.00;4.50;;;;;;;22.94;64.74;157265.91;5020588;28;20452;-81
2023/06/19 05:46:02;;;;;;;5.80;3.90;;;;;;;22.93;65.32;157263.28;5024399;28;20451;-81
2023/06/19 05:48:28;;;;;;;4.43;4.03;;;;;;;22.98;65.53;157277.66;5024581;28;20464;-76
2023/06/19 05:50:55;;;;;;;5.30;4.67;;;;;;;23.03;65.38;157289.47;5024042;28;20456;-84
2023/06/19 05:53:22;;;;;;;4.57;4.17;;;;;;;23.18;65.82;157328.66;5023664;28;20507;-85
2023/06/19 05:55:50;;;;;;;4.20;3.90;;;;;;;23.40;65.11;157386.22;5024250;28;20552;-85
2023/06/19 05:58:19;;;;;;;4.50;4.10;;;;;;;23.58;64.44;157433.28;5025105;28;20455;-85
2023/06/19 06:00:46;;;;;;;4.03;3.73;;;;;;;23.76;63.63;157479.00;5017815;28;20446;-85
2023/06/19 06:03:13;;;;;;;4.23;3.83;;;;;;;23.89;63.22;157511.69;5006676;28;20455;-84
2023/06/19 06:05:40;;;;;;;4.00;3.70;;;;;;;23.94;62.95;157524.75;5023110;28;20556;-85
2023/06/19 06:08:06;;;;;;;3.93;3.63;;;;;;;23.95;63.36;157528.69;5025666;28;20456;-85
2023/06/19 06:10:34;;;;;;;4.27;3.87;;;;;;;23.90;63.35;157515.63;5024475;28;20557;-86
2023/06/19 06:13:01;;;;;;;4.50;4.10;;;;;;;23.91;63.98;157518.22;5023022;28;20447;-86
2023/06/19 06:15:28;;;;;;;4.57;4.10;;;;;;;23.95;63.75;157527.38;5009236;28;20480;-86
2023/06/19 06:17:55;;;;;;;4.10;3.80;;;;;;;23.99;63.70;157539.13;5015084;28;20482;-86
2023/06/19 06:20:21;;;;;;;3.90;3.47;;;;;;;24.00;63.09;157540.47;5023961;28;20997;-86
2023/06/19 06:22:48;;;;;;;4.27;3.97;;;;;;;24.06;63.58;157557.47;5025587;28;20517;-85
2023/06/19 06:25:15;;;;;;;4.30;3.90;;;;;;;24.11;63.13;157570.59;5024542;28;20471;-85
2023/06/19 06:27:41;;;;;;;4.27;3.87;;;;;;;24.31;62.90;157621.56;5023710;28;20465;-86
2023/06/19 06:30:12;;;;;;;3.57;3.27;;;;;;;24.50;62.41;157669.97;5008290;28;20452;-86
2023/06/19 06:32:38;;;;;;;4.10;3.73;;;;;;;24.68;62.10;157717.06;5044100;28;20448;-86
2023/06/19 06:35:06;;;;;;;4.00;3.50;;;;;;;24.83;61.67;157755.06;5036837;28;20510;-86
2023/06/19 06:37:33;;;;;;;3.80;3.50;;;;;;;24.99;61.39;157798.25;5007268;28;20571;-86
2023/06/19 06:39:59;;;;;;;4.07;3.67;;;;;;;25.28;60.51;157872.84;5007488;28;20625;-86
2023/06/19 06:42:26;;;;;;;3.80;3.50;;;;;;;25.60;59.00;157955.34;5019818;28;20463;-87
2023/06/19 06:44:52;;;;;;;3.73;3.43;;;;;;;26.02;58.39;158065.31;5023900;28;20451;-87
2023/06/19 06:47:20;;;;;;;3.67;3.37;;;;;;;26.28;57.16;158132.13;5022351;28;20467;-86
2023/06/19 06:49:47;;;;;;;3.30;3.00;;;;;;;26.45;55.17;158176.66;5023123;28;20464;-85
2023/06/19 06:52:14;;;;;;;3.70;3.33;;;;;;;26.50;55.04;158191.03;5025219;28;20444;-85
2023/06/19 06:58:28;;;;;;;3.77;3.47;;;;;;;26.33;55.67;158145.22;5024745;28;20459;-85
2023/06/19 07:00:55;;;;;;;3.63;3.33;;;;;;;26.27;56.00;158129.47;5019611;28;20463;-85
2023/06/19 07:03:23;;;;;;;3.80;3.50;;;;;;;26.17;56.01;158104.63;5009395;28;20531;-85
2023/06/19 07:05:49;;;;;;;3.40;3.10;;;;;;;26.10;56.78;158086.25;5019830;28;20925;-85
2023/06/19 07:08:16;;;;;;;3.37;3.17;;;;;;;26.05;56.65;158071.84;5019012;28;20530;-85
2023/06/19 07:10:42;;;;;;;3.23;2.87;;;;;;;25.96;55.67;158050.91;5024060;28;20477;-85
2023/06/19 07:13:09;;;;;;;2.87;2.67;;;;;;;25.95;55.47;158048.25;5022715;28;20446;-85
2023/06/19 07:15:35;;;;;;;2.57;2.37;;;;;;;25.89;55.11;158031.25;5022406;28;20460;-85
2023/06/19 07:18:02;;;;;;;2.93;2.73;;;;;;;25.88;54.97;158029.94;5020686;28;21005;-85
2023/06/19 07:20:30;;;;;;;2.73;2.53;;;;;;;25.88;53.77;158029.94;5021625;28;20561;-82
2023/06/19 07:22:56;;;;;;;3.20;2.90;;;;;;;25.92;54.59;158039.13;5022920;28;20494;-85
2023/06/19 07:25:25;;;;;;;3.80;3.40;;;;;;;26.21;54.34;158113.81;5022486;28;20522;-82
2023/06/19 07:27:51;;;;;;;3.30;3.00;;;;;;;26.73;53.85;158248.69;5013126;28;20462;-82
2023/06/19 07:30:18;;;;;;;3.37;3.07;;;;;;;27.16;52.95;158362.69;5006202;28;20456;-83
2023/06/19 07:32:44;;;;;;;4.00;3.30;;;;;;;27.60;52.32;158476.75;5024987;28;20440;-83
2023/06/19 07:35:12;;;;;;;3.13;2.90;;;;;;;28.01;50.44;158582.91;5007475;28;20459;-83
2023/06/19 07:37:40;;;;;;;3.50;2.87;;;;;;;28.29;49.25;158655.09;5022208;28;20563;-83
2023/06/19 07:40:07;;;;;;;3.37;3.07;;;;;;;28.57;48.46;158728.50;5024047;28;20982;-82
2023/06/19 07:42:34;;;;;;;3.50;3.20;;;;;;;28.70;47.96;158761.38;5024295;28;20460;-83
2023/06/19 07:45:00;;;;;;;2.80;2.60;;;;;;;28.92;47.98;158819.06;5023883;28;20452;-82
2023/06/19 07:47:27;;;;;;;3.20;2.90;;;;;;;28.99;47.35;158838.72;5023438;28;20451;-82
2023/06/19 07:49:54;;;;;;;3.37;2.90;;;;;;;29.14;46.96;158875.47;5024303;28;20459;-83
2023/06/19 07:52:20;;;;;;;3.70;3.40;;;;;;;29.13;46.88;158874.16;5023198;28;20466;-82
2023/06/19 07:54:54;;;;;;;3.27;3.07;;;;;;;29.03;47.49;158847.91;5026519;28;20459;-82
2023/06/19 07:57:21;;;;;;;3.70;3.40;;;;;;;29.10;47.50;158866.28;5027857;28;20475;-83
2023/06/19 07:59:47;;;;;;;3.60;3.30;;;;;;;29.37;47.07;158937.19;5026834;28;20467;-83
2023/06/19 08:02:14;;;;;;;3.40;3.10;;;;;;;29.47;46.41;158963.41;5028989;28;20524;-83
2023/06/19 08:04:41;;;;;;;3.80;3.50;;;;;;;29.51;46.15;158973.94;5028140;28;20451;-82
2023/06/19 08:07:08;;;;;;;3.27;2.97;;;;;;;29.64;45.22;159006.72;4993981;28;20478;-82
2023/06/19 08:09:34;;;;;;;4.03;3.50;;;;;;;29.71;44.61;159025.09;5029044;28;20569;-82
2023/06/19 08:12:03;;;;;;;4.20;3.70;;;;;;;29.58;44.42;158992.28;5026268;28;20831;-82
2023/06/19 08:14:30;;;;;;;3.30;3.00;;;;;;;29.43;44.71;158951.63;5025979;28;20463;-82
2023/06/19 08:16:57;;;;;;;3.07;2.87;;;;;;;29.28;45.62;158912.28;5027975;28;20525;-82
2023/06/19 08:19:23;;;;;;;4.40;4.00;;;;;;;29.10;45.91;158865.00;5026539;28;20549;-82
2023/06/19 08:21:50;;;;;;;6.03;3.47;;;;;;;28.88;46.77;158809.91;5026489;28;20533;-82
2023/06/19 08:24:17;;;;;;;3.93;3.63;;;;;;;28.78;47.01;158783.63;5031542;28;20448;-83
2023/06/19 08:26:43;;;;;;;3.83;3.47;;;;;;;28.71;46.24;158763.97;5027947;28;20819;-82
2023/06/19 08:29:11;;;;;;;3.80;3.50;;;;;;;28.59;46.88;158733.78;5028915;28;20835;-83
2023/06/19 08:31:38;;;;;;;3.60;3.30;;;;;;;28.51;47.07;158711.47;5027639;28;20975;-82
2023/06/19 08:34:07;;;;;;;4.67;3.63;;;;;;;28.40;47.83;158683.94;5010060;28;20574;-82
2023/06/19 08:36:34;;;;;;;3.80;3.50;;;;;;;28.34;47.86;158669.53;5007437;28;20966;-82
2023/06/19 08:39:01;;;;;;;3.23;2.93;;;;;;;28.27;48.15;158649.84;5026091;28;20942;-82
2023/06/19 08:41:28;;;;;;;4.37;3.97;;;;;;;28.24;48.44;158643.31;5026934;28;20452;-82
2023/06/19 08:43:54;;;;;;;3.00;2.73;;;;;;;28.26;48.04;158647.22;5028282;28;20908;-82
2023/06/19 08:46:22;;;;;;;3.70;3.40;;;;;;;28.34;48.29;158668.19;5026417;28;20937;-82
2023/06/19 08:48:51;;;;;;;4.20;3.80;;;;;;;28.42;48.32;158687.84;5010187;28;20963;-82
2023/06/19 08:51:18;;;;;;;3.63;3.33;;;;;;;28.67;47.67;158754.81;5026994;28;20451;-82
2023/06/19 08:53:47;;;;;;;3.90;3.60;;;;;;;29.00;46.75;158840.03;5026093;28;20463;-82
2023/06/19 08:56:13;;;;;;;4.07;3.77;;;;;;;29.34;46.71;158927.97;5008803;28;21004;-82
2023/06/19 08:58:40;;;;;;;3.63;3.33;;;;;;;29.63;45.61;159004.09;5025699;28;20865;-83
2023/06/19 09:01:06;;;;;;;4.47;3.10;;;;;;;29.93;44.21;159082.91;5001970;28;20890;-82
2023/06/19 09:03:35;;;;;;;3.03;2.80;;;;;;;30.10;43.49;159127.50;5024942;28;20458;-83
2023/06/19 09:06:04;;;;;;;3.73;3.00;;;;;;;30.33;43.54;159185.28;5022872;28;20466;-83
2023/06/19 09:08:41;;;;;;;3.13;2.90;;;;;;;30.55;42.66;159244.38;5024033;28;20446;-83
2023/06/19 09:11:07;;;;;;;3.67;3.33;;;;;;;30.69;42.27;159281.16;5025532;28;20451;-83
2023/06/19 09:13:34;;;;;;;3.23;2.70;;;;;;;30.89;40.90;159331.06;5025201;28;20538;-80
2023/06/19 09:16:04;;;;;;;3.20;2.90;;;;;;;30.92;41.02;159340.31;5000099;28;20510;-81
2023/06/19 09:18:31;;;;;;;3.33;2.87;;;;;;;30.98;41.37;159356.06;5025624;28;20988;-81
2023/06/19 09:20:59;;;;;;;3.00;2.80;;;;;;;31.11;41.06;159390.19;5025954;28;20929;-81
2023/06/19 09:23:26;;;;;;;2.83;2.50;;;;;;;31.19;40.95;159411.22;5024893;28;20458;-81
2023/06/19 09:25:58;;;;;;;3.20;2.90;;;;;;;31.36;39.40;159454.56;5006751;28;20916;-81
2023/06/19 09:28:26;;;;;;;3.10;2.80;;;;;;;31.53;40.39;159498.00;5024821;28;20646;-81
2023/06/19 09:30:57;;;;;;;3.33;3.03;;;;;;;31.58;40.05;159512.44;5024321;28;20456;-82
2023/06/19 09:33:24;;;;;;;2.90;2.70;;;;;;;31.68;38.88;159537.38;5022722;28;20479;-81
2023/06/19 09:35:51;;;;;;;3.20;2.90;;;;;;;31.79;38.48;159566.28;5025669;28;20452;-81
2023/06/19 09:38:22;;;;;;;3.07;2.77;;;;;;;31.84;38.65;159579.44;5031522;28;20561;-82
2023/06/19 09:40:49;;;;;;;2.60;2.40;;;;;;;31.75;38.60;159555.75;5030772;28;20463;-81
2023/06/19 09:43:20;;;;;;;3.30;3.00;;;;;;;31.68;38.83;159537.38;5023513;28;20836;-81
2023/06/19 09:45:50;;;;;;;3.13;2.87;;;;;;;31.61;38.38;159519.00;5027002;28;20455;-81
2023/06/19 09:48:20;;;;;;;3.43;2.53;;;;;;;31.46;38.04;159479.56;5026899;28;20451;-82
2023/06/19 09:50:55;;;;;;;3.30;3.00;;;;;;;31.19;39.03;159409.94;5015917;28;20450;-82
2023/06/19 09:53:24;;;;;;;3.57;3.27;;;;;;;31.11;39.63;159388.91;5024008;28;20638;-82
2023/06/19 09:55:51;;;;;;;3.00;2.80;;;;;;;31.09;40.42;159384.94;5025188;28;20520;-82
2023/06/19 09:58:19;;;;;;;3.03;2.83;;;;;;;30.93;40.28;159342.94;5025744;28;20479;-82
2023/06/19 10:00:46;;;;;;;3.43;3.13;;;;;;;31.01;40.58;159362.63;5024909;28;20475;-82
2023/06/19 10:03:14;;;;;;;3.60;3.30;;;;;;;31.14;40.52;159398.09;5025089;28;20551;-82
2023/06/19 10:05:41;;;;;;;3.67;3.40;;;;;;;31.25;40.50;159425.66;5025623;28;20444;-82
2023/06/19 10:08:08;;;;;;;3.80;3.50;;;;;;;31.33;39.80;159446.69;5023869;28;20550;-82
2023/06/19 10:10:36;;;;;;;3.30;3.10;;;;;;;31.44;41.02;159475.59;5025589;28;20466;-82
2023/06/19 10:13:13;;;;;;;3.50;3.20;;;;;;;31.58;40.08;159512.44;5015395;28;20459;-82
2023/06/19 10:15:42;;;;;;;3.47;3.17;;;;;;;31.66;38.56;159532.16;5025118;28;20466;-82
2023/06/19 10:18:08;;;;;;;4.20;3.40;;;;;;;31.19;39.97;159411.22;5024261;28;20480;-83
2023/06/19 10:20:38;;;;;;;4.07;3.77;;;;;;;30.83;42.19;159316.63;5023646;28;20475;-82
2023/06/19 10:23:06;;;;;;;3.97;3.67;;;;;;;30.94;42.74;159344.25;5023412;28;20456;-83
2023/06/19 10:25:34;;;;;;;4.17;3.77;;;;;;;30.87;41.90;159325.84;5023801;28;20478;-83
2023/06/19 10:28:05;;;;;;;4.50;4.10;;;;;;;30.38;43.27;159199.75;5015229;28;20468;-82
2023/06/19 10:30:34;;;;;;;4.00;3.70;;;;;;;30.20;43.39;159151.13;5024926;28;20903;-82
2023/06/19 10:33:03;;;;;;;3.90;3.60;;;;;;;30.02;43.51;159106.50;5024006;28;20464;-82
2023/06/19 10:35:30;;;;;;;4.43;4.03;;;;;;;29.85;43.85;159061.91;5024100;28;20452;-83
2023/06/19 10:37:57;;;;;;;4.50;4.10;;;;;;;29.94;43.54;159084.22;5022790;28;20475;-82
2023/06/19 10:40:23;;;;;;;4.27;3.87;;;;;;;29.95;43.42;159088.13;5024588;28;20452;-82
2023/06/19 10:42:49;;;;;;;5.10;4.17;;;;;;;30.02;43.49;159106.50;5024597;28;20459;-82
2023/06/19 10:45:18;;;;;;;4.70;4.30;;;;;;;30.15;43.50;159139.34;5007388;28;21061;-82
2023/06/19 10:47:45;;;;;;;4.77;4.37;;;;;;;30.24;42.91;159162.94;5025341;28;21863;-82
2023/06/19 10:50:13;;;;;;;4.50;4.20;;;;;;;30.14;42.40;159138.03;5023058;28;20447;-83
2023/06/19 10:52:44;;;;;;;4.87;4.37;;;;;;;30.04;42.84;159111.78;5022853;28;20586;-82
2023/06/19 10:55:11;;;;;;;4.70;4.30;;;;;;;29.87;43.09;159065.81;4990827;28;20456;-82
2023/06/19 10:57:38;;;;;;;4.47;3.80;;;;;;;29.90;43.72;159075.00;5014739;28;20586;-82
2023/06/19 11:00:11;;;;;;;5.40;4.50;;;;;;;29.81;45.21;159051.38;5009335;28;21157;-82
2023/06/19 11:02:42;;;;;;;5.87;5.33;;;;;;;29.18;46.43;158887.25;5022749;28;20456;-82
2023/06/19 11:05:09;;;;;;;5.00;4.60;;;;;;;28.57;48.09;158727.22;5022955;28;20444;-82
2023/06/19 11:07:36;;;;;;;5.60;5.20;;;;;;;28.38;47.78;158678.72;5006736;28;20463;-82
2023/06/19 11:10:03;;;;;;;4.67;4.27;;;;;;;28.41;48.88;158686.53;5022892;28;20444;-82
2023/06/19 11:12:30;;;;;;;4.67;4.27;;;;;;;28.45;48.92;158697.06;5022705;28;20557;-82
2023/06/19 11:14:56;;;;;;;6.70;6.00;;;;;;;28.65;48.81;158749.53;5020379;28;20502;-82
2023/06/19 11:17:23;;;;;;;4.90;4.50;;;;;;;28.88;48.34;158809.91;5020237;28;20486;-82
2023/06/19 11:19:52;;;;;;;5.33;4.40;;;;;;;29.03;48.11;158847.91;5004566;28;20456;-81
2023/06/19 11:22:18;;;;;;;4.67;4.27;;;;;;;28.85;48.00;158802.03;5010185;28;20524;-82
2023/06/19 11:24:46;;;;;;;5.20;4.70;;;;;;;28.42;49.06;158687.84;5022841;28;20460;-82
2023/06/19 11:27:27;;;;;;;5.03;4.63;;;;;;;28.15;50.24;158618.38;5023065;28;20510;-82
2023/06/19 11:29:56;;;;;;;7.57;5.13;;;;;;;28.08;49.63;158601.34;5024836;28;20447;-82